Карточка аэропорта UIBB

Внимание!
Информация на этой странице в стадии наполнения.
Если вы не увидели какой-то информации, или заметили неточность - пожалуйста сообщите нам!
Спасибо!
Команда RU-STAFF
Название аэропортаБратск
Название аэропорта (англ.)Bratsk
Превышение1598 ft. (487.1 m.)
Координаты56°22.236', 101°41.94'
Высота перехода900m
Эшелон переходаQFE>=715mm:FL060; QFE<715=>688:FL070; QFE<688:FL080
Коды ответчика3301-3327
Зона ОрВДИркутск РПИ (UIII)
Данные METARUIBB 271100Z 00000MPS 5000 BR NSC M21/M23 Q1031 R30/821045 NOSIG RMK QFE730/0973
Проноз погоды (TAF)UIBB 270800Z 2709/2809 10003MPS 4000 BR FEW003 SCT016 TEMPO 2709/2714 0300 FZFG VV001 BECMG 2714/2716 0300 FZFG VV001 TEMPO 2716/2803 3100 BR FEW002 BECMG 2803/2805 9999 NSW FEW003
NOTAMshow/hide NOTAM
AWOS   TABLE

Информация о ВПП


Диспетчерские позиции

Позывной Наименование органа УВД Частота
UIBB_APPБратск-Подход118.1
UIBB_GNDБратск-Вышка121.8



Спутниковое изображение